Time;durP1;ratioP1;P1;durP2;ratioP2;P2;SDS_P1;SDS_P2;PMS_P1;PMS_P2;Temp;Humidity;BMP_temperature;BMP_pressure;BME280_temperature;BME280_humidity;BME280_pressure;Samples;Min_cycle;Max_cycle;Signal;HPM_P1;HPM_P2
2023/12/07 00:00:36;;;;;;;7.63;3.13;;;7.90;58.20;;;;;;6278226;28;20107;-72
2023/12/07 00:03:38;;;;;;;8.70;4.28;;;7.80;58.20;;;;;;6278093;28;20037;-71
2023/12/07 00:06:38;;;;;;;9.30;3.90;;;7.80;58.30;;;;;;6263077;28;20057;-72
2023/12/07 00:09:39;;;;;;;4.50;2.85;;;7.80;58.40;;;;;;6281694;28;20329;-72
2023/12/07 00:12:40;;;;;;;6.43;3.78;;;7.70;58.40;;;;;;6269350;28;20062;-72
2023/12/07 00:15:41;;;;;;;9.40;4.85;;;7.70;58.60;;;;;;6264671;28;20097;-71
2023/12/07 00:18:43;;;;;;;7.90;4.35;;;7.70;58.70;;;;;;6276323;28;20107;-72
2023/12/07 00:21:44;;;;;;;10.02;4.60;;;7.60;58.70;;;;;;6277218;28;20029;-71
2023/12/07 00:24:44;;;;;;;8.52;4.07;;;7.60;58.80;;;;;;6282013;28;20040;-72
2023/12/07 00:27:45;;;;;;;6.88;4.35;;;7.50;58.80;;;;;;6264602;28;20032;-71
2023/12/07 00:30:46;;;;;;;6.68;3.42;;;7.50;58.90;;;;;;6266647;28;20247;-73
2023/12/07 00:33:47;;;;;;;7.25;4.40;;;7.50;58.90;;;;;;6262150;28;20041;-71
2023/12/07 00:36:48;;;;;;;7.75;3.67;;;7.50;59.00;;;;;;6293950;28;20165;-72
2023/12/07 00:39:49;;;;;;;14.20;3.95;;;7.50;59.00;;;;;;6293528;28;20740;-71
2023/12/07 00:42:51;;;;;;;10.60;4.57;;;7.50;59.00;;;;;;6284008;28;20051;-72
2023/12/07 00:45:52;;;;;;;8.10;3.72;;;7.50;59.00;;;;;;6281722;28;20036;-72
2023/12/07 00:48:52;;;;;;;8.90;4.35;;;7.50;59.50;;;;;;6273964;28;20508;-72
2023/12/07 00:51:53;;;;;;;6.25;3.63;;;7.50;59.00;;;;;;6279679;28;20504;-72
2023/12/07 00:54:54;;;;;;;11.27;3.70;;;7.50;58.90;;;;;;6266260;28;20032;-72
2023/12/07 00:57:55;;;;;;;6.13;3.35;;;7.50;58.90;;;;;;6278225;28;20040;-71
2023/12/07 01:00:56;;;;;;;7.85;2.58;;;7.50;58.80;;;;;;6282797;28;20088;-71
2023/12/07 01:03:57;;;;;;;5.25;3.30;;;7.60;58.80;;;;;;6284554;28;20081;-71
2023/12/07 01:06:59;;;;;;;5.15;2.95;;;7.60;58.70;;;;;;6275707;28;20456;-71
2023/12/07 01:10:01;;;;;;;3.83;1.98;;;7.60;58.60;;;;;;6271261;28;20051;-71
2023/12/07 01:13:02;;;;;;;8.48;3.58;;;7.50;58.50;;;;;;6281282;28;20130;-71
2023/12/07 01:16:03;;;;;;;12.82;4.13;;;7.60;58.50;;;;;;6279564;28;20104;-70
2023/12/07 01:19:04;;;;;;;11.77;3.22;;;7.50;58.30;;;;;;6284402;28;20040;-71
2023/12/07 01:22:05;;;;;;;6.45;3.65;;;7.50;58.30;;;;;;6270916;28;20045;-72
2023/12/07 01:25:08;;;;;;;5.68;3.38;;;7.50;58.40;;;;;;6276388;28;20110;-72
2023/12/07 01:28:09;;;;;;;9.02;4.18;;;7.40;58.40;;;;;;6278278;28;20029;-71
2023/12/07 01:31:10;;;;;;;7.57;3.75;;;7.40;58.50;;;;;;6282385;28;20377;-71
2023/12/07 01:34:12;;;;;;;6.90;3.38;;;7.30;58.60;;;;;;6279552;28;20045;-71
2023/12/07 01:37:12;;;;;;;7.20;3.45;;;7.30;58.80;;;;;;6269939;28;20041;-70
2023/12/07 01:40:14;;;;;;;8.00;2.85;;;7.20;58.80;;;;;;6275511;28;20036;-71
2023/12/07 01:43:20;;;;;;;8.00;4.03;;;7.20;58.80;;;;;;6274909;28;20096;-71
2023/12/07 01:46:21;;;;;;;5.45;3.33;;;7.20;58.90;;;;;;6262310;28;20020;-71
2023/12/07 01:49:22;;;;;;;7.45;3.33;;;7.20;59.00;;;;;;6277153;28;20035;-70
2023/12/07 01:52:26;;;;;;;4.88;2.72;;;7.20;58.90;;;;;;6279501;28;20040;-71
2023/12/07 01:55:31;;;;;;;5.00;2.80;;;7.20;58.90;;;;;;6281689;28;20105;-71
2023/12/07 01:58:33;;;;;;;8.77;3.55;;;7.20;58.90;;;;;;6281136;28;20040;-71
2023/12/07 02:01:36;;;;;;;7.88;2.33;;;7.20;58.90;;;;;;6284187;28;20120;-70
2023/12/07 02:04:37;;;;;;;9.90;3.20;;;7.30;58.90;;;;;;6282623;28;20089;-71
2023/12/07 02:07:39;;;;;;;4.80;2.47;;;7.20;58.70;;;;;;6282851;28;20511;-71
2023/12/07 02:10:40;;;;;;;6.80;3.10;;;7.30;58.80;;;;;;6269586;28;20036;-72
2023/12/07 02:13:41;;;;;;;6.57;2.83;;;7.20;58.70;;;;;;6281548;28;20116;-70
2023/12/07 02:16:51;;;;;;;8.80;3.28;;;7.30;58.60;;;;;;6287547;28;20048;-70
2023/12/07 02:19:51;;;;;;;4.88;2.60;;;7.30;58.60;;;;;;6277257;28;20059;-71
2023/12/07 02:22:55;;;;;;;5.35;2.63;;;7.20;58.60;;;;;;6289483;28;20044;-71
2023/12/07 02:26:02;;;;;;;6.85;2.83;;;7.20;58.50;;;;;;6288578;28;20032;-71
2023/12/07 02:29:07;;;;;;;6.15;4.03;;;7.10;58.50;;;;;;6271516;28;20024;-71
2023/12/07 02:32:09;;;;;;;4.57;2.13;;;6.90;58.50;;;;;;6256428;28;20087;-72
2023/12/07 02:35:12;;;;;;;4.35;2.30;;;7.00;58.70;;;;;;6270123;28;20040;-71
2023/12/07 02:38:14;;;;;;;3.40;2.70;;;7.00;58.80;;;;;;6270193;28;20044;-71
2023/12/07 02:41:16;;;;;;;10.68;3.92;;;7.00;58.90;;;;;;6268324;28;20036;-72
2023/12/07 02:44:17;;;;;;;5.00;3.08;;;6.90;59.00;;;;;;6287081;28;20025;-72
2023/12/07 02:47:19;;;;;;;2.90;1.77;;;6.80;59.10;;;;;;6288934;28;20032;-71
2023/12/07 02:50:20;;;;;;;5.50;1.85;;;6.80;59.10;;;;;;6270152;28;20028;-71
2023/12/07 02:53:22;;;;;;;3.25;2.30;;;6.80;59.10;;;;;;6287613;28;20392;-71
2023/12/07 02:56:23;;;;;;;8.85;3.22;;;6.80;59.10;;;;;;6269920;28;20035;-71
2023/12/07 02:59:24;;;;;;;5.07;2.00;;;6.70;59.30;;;;;;6287956;28;20037;-72
2023/12/07 03:02:25;;;;;;;3.30;1.95;;;6.70;59.50;;;;;;6269677;28;20072;-71
2023/12/07 03:05:26;;;;;;;3.88;2.30;;;6.60;59.70;;;;;;6286164;28;20060;-72
2023/12/07 03:08:30;;;;;;;10.52;3.38;;;6.50;59.90;;;;;;6285267;28;20047;-71
2023/12/07 03:11:31;;;;;;;5.20;2.38;;;6.50;60.20;;;;;;6286877;28;20032;-71
2023/12/07 03:14:32;;;;;;;5.28;2.75;;;6.40;60.50;;;;;;6283214;28;20080;-72
2023/12/07 03:17:34;;;;;;;4.93;3.10;;;6.40;60.70;;;;;;6285566;28;20491;-72
2023/12/07 03:20:34;;;;;;;7.13;2.28;;;6.40;60.80;;;;;;6284766;28;20028;-71
2023/12/07 03:23:38;;;;;;;4.60;2.45;;;6.40;60.80;;;;;;6286700;28;20508;-71
2023/12/07 03:26:39;;;;;;;4.10;2.42;;;6.40;60.90;;;;;;6286408;28;20024;-71
2023/12/07 03:29:39;;;;;;;10.98;3.47;;;6.30;60.90;;;;;;6288698;28;20108;-71
2023/12/07 03:32:40;;;;;;;7.95;2.97;;;6.30;60.90;;;;;;6285925;28;20028;-72
2023/12/07 03:35:41;;;;;;;4.80;2.47;;;6.30;61.00;;;;;;6286962;28;20037;-72
2023/12/07 03:38:42;;;;;;;6.47;3.25;;;6.30;61.00;;;;;;6287474;28;20142;-72
2023/12/07 03:41:43;;;;;;;5.97;2.90;;;6.30;61.00;;;;;;6284179;28;20516;-72
2023/12/07 03:44:46;;;;;;;6.38;3.33;;;6.30;61.10;;;;;;6282770;28;20029;-71
2023/12/07 03:47:48;;;;;;;7.63;3.60;;;6.30;61.20;;;;;;6268858;28;20067;-70
2023/12/07 03:50:50;;;;;;;7.22;3.70;;;6.20;61.20;;;;;;6287094;28;20074;-69
2023/12/07 03:53:54;;;;;;;3.20;2.10;;;6.20;61.30;;;;;;6284390;28;20037;-70
2023/12/07 03:56:55;;;;;;;6.03;2.63;;;6.20;61.50;;;;;;6286196;28;20173;-70
2023/12/07 03:59:57;;;;;;;8.48;2.58;;;6.10;61.50;;;;;;6285431;28;20119;-71
2023/12/07 04:02:58;;;;;;;5.25;2.05;;;6.10;61.50;;;;;;6285089;28;20469;-70
2023/12/07 04:05:59;;;;;;;4.43;2.55;;;6.00;61.60;;;;;;6268100;28;20036;-70
2023/12/07 04:09:00;;;;;;;8.00;2.78;;;6.00;61.80;;;;;;6286692;28;20453;-70
2023/12/07 04:12:02;;;;;;;4.97;2.20;;;6.00;61.90;;;;;;6286791;28;20039;-71
2023/12/07 04:15:03;;;;;;;4.95;2.80;;;6.10;61.90;;;;;;6277964;28;20144;-71
2023/12/07 04:18:04;;;;;;;5.15;1.77;;;6.00;61.60;;;;;;6284891;28;20138;-70
2023/12/07 04:21:05;;;;;;;3.95;2.25;;;6.00;61.40;;;;;;6285144;28;20237;-70
2023/12/07 04:24:06;;;;;;;7.30;2.70;;;5.90;61.30;;;;;;6284617;28;20078;-71
2023/12/07 04:27:07;;;;;;;4.53;1.73;;;5.90;61.40;;;;;;6268309;28;20029;-72
2023/12/07 04:30:08;;;;;;;4.43;2.22;;;5.90;61.50;;;;;;6286376;28;20036;-72
2023/12/07 04:33:09;;;;;;;7.53;2.25;;;5.90;61.60;;;;;;6285272;28;20030;-70
2023/12/07 04:36:10;;;;;;;2.22;1.33;;;5.80;61.50;;;;;;6281648;28;20036;-70
2023/12/07 04:39:11;;;;;;;4.97;2.47;;;5.80;61.50;;;;;;6284392;28;20064;-72
2023/12/07 04:42:12;;;;;;;3.10;1.15;;;5.80;61.40;;;;;;6285167;28;20438;-71
2023/12/07 04:45:13;;;;;;;12.77;1.77;;;5.80;61.40;;;;;;6284746;28;20031;-72
2023/12/07 04:48:14;;;;;;;4.65;2.15;;;5.70;61.40;;;;;;6286182;28;20072;-72
2023/12/07 04:51:15;;;;;;;4.28;3.03;;;5.70;61.40;;;;;;6286000;28;20070;-69
2023/12/07 04:54:16;;;;;;;6.20;2.25;;;5.70;61.40;;;;;;6284680;28;20060;-72
2023/12/07 04:57:17;;;;;;;6.40;2.80;;;5.70;61.50;;;;;;6284018;28;20035;-72
2023/12/07 05:00:18;;;;;;;6.72;3.17;;;5.70;61.70;;;;;;6283841;28;20051;-72
2023/12/07 05:03:21;;;;;;;9.13;3.13;;;5.70;61.70;;;;;;6283590;28;20029;-72
2023/12/07 05:06:22;;;;;;;6.60;3.28;;;5.70;61.70;;;;;;6271823;28;20101;-72
2023/12/07 05:09:23;;;;;;;5.63;2.72;;;5.60;61.70;;;;;;6283630;28;20045;-71
2023/12/07 05:12:26;;;;;;;4.47;2.10;;;5.70;61.90;;;;;;6283992;28;20031;-71
2023/12/07 05:15:27;;;;;;;5.25;3.17;;;5.60;61.90;;;;;;6285000;28;20032;-72
2023/12/07 05:18:28;;;;;;;7.85;2.67;;;5.60;61.90;;;;;;6259568;28;20036;-71
2023/12/07 05:21:29;;;;;;;8.05;2.55;;;5.60;62.00;;;;;;6284387;28;20028;-71
2023/12/07 05:24:34;;;;;;;5.85;3.03;;;5.50;62.00;;;;;;6285728;28;20551;-72
2023/12/07 05:27:35;;;;;;;7.25;2.58;;;5.50;62.10;;;;;;6281363;28;20055;-71
2023/12/07 05:30:36;;;;;;;4.22;1.95;;;5.50;62.30;;;;;;6290187;28;20530;-71
2023/12/07 05:33:38;;;;;;;3.05;1.80;;;5.50;62.30;;;;;;6294834;28;20514;-70
2023/12/07 05:36:39;;;;;;;5.32;2.70;;;5.50;62.50;;;;;;6296770;28;20016;-71
2023/12/07 05:39:40;;;;;;;6.75;2.80;;;5.60;62.50;;;;;;6301525;28;20028;-72
2023/12/07 05:42:41;;;;;;;6.15;2.90;;;5.50;62.50;;;;;;6296132;28;20035;-71
2023/12/07 05:45:48;;;;;;;9.20;3.30;;;5.50;62.50;;;;;;6290510;28;20027;-71
2023/12/07 05:48:50;;;;;;;3.92;2.10;;;5.60;62.50;;;;;;6287073;28;20566;-72
2023/12/07 05:51:52;;;;;;;4.05;2.45;;;5.60;62.30;;;;;;6297867;28;20036;-72
2023/12/07 05:54:54;;;;;;;4.28;2.50;;;5.60;62.30;;;;;;6302355;28;20448;-71
2023/12/07 05:57:55;;;;;;;5.97;2.83;;;5.50;62.20;;;;;;6304798;28;20035;-69
2023/12/07 06:00:59;;;;;;;7.78;2.22;;;5.50;62.50;;;;;;6298380;28;20345;-73
2023/12/07 06:04:00;;;;;;;10.98;4.28;;;5.40;62.60;;;;;;6303787;28;20032;-71
2023/12/07 06:07:02;;;;;;;4.38;1.85;;;5.40;62.70;;;;;;6302632;28;20051;-73
2023/12/07 06:10:05;;;;;;;3.70;2.10;;;5.40;62.80;;;;;;6302398;28;20028;-72
2023/12/07 06:13:06;;;;;;;7.22;3.20;;;5.40;62.90;;;;;;6297754;28;20123;-70
2023/12/07 06:16:12;;;;;;;4.80;3.00;;;5.40;62.90;;;;;;6300893;28;20032;-72
2023/12/07 06:19:15;;;;;;;5.65;3.08;;;5.40;62.80;;;;;;6280850;28;20507;-72
2023/12/07 06:22:16;;;;;;;10.15;2.03;;;5.40;62.70;;;;;;6301476;28;20055;-71
2023/12/07 06:25:17;;;;;;;3.55;2.42;;;5.50;62.70;;;;;;6301761;28;20051;-71
2023/12/07 06:28:18;;;;;;;14.80;1.85;;;5.50;62.60;;;;;;6277483;28;20059;-72
2023/12/07 06:31:22;;;;;;;8.00;2.20;;;5.50;62.50;;;;;;6287951;28;20040;-71
2023/12/07 06:34:23;;;;;;;4.47;2.38;;;5.50;62.40;;;;;;6288846;28;20029;-69
2023/12/07 06:37:25;;;;;;;8.00;2.78;;;5.50;62.50;;;;;;6286574;28;20442;-69
2023/12/07 06:40:26;;;;;;;4.60;2.40;;;5.40;62.50;;;;;;6286467;28;20032;-68
2023/12/07 06:43:28;;;;;;;7.93;2.30;;;5.50;62.60;;;;;;6286793;28;20139;-69
2023/12/07 06:46:28;;;;;;;2.83;1.92;;;5.40;62.50;;;;;;6282056;28;20047;-67
2023/12/07 06:49:30;;;;;;;5.75;2.30;;;5.40;62.60;;;;;;6287103;28;20449;-69
2023/12/07 06:52:32;;;;;;;3.78;2.60;;;5.40;62.50;;;;;;6287178;28;20050;-69
2023/12/07 06:55:33;;;;;;;3.60;2.15;;;5.40;62.60;;;;;;6288441;28;20063;-68
2023/12/07 06:58:34;;;;;;;2.55;1.92;;;5.40;62.60;;;;;;6286980;28;20021;-70
2023/12/07 07:01:35;;;;;;;5.78;2.85;;;5.40;62.60;;;;;;6286510;28;20044;-70
2023/12/07 07:04:36;;;;;;;2.97;1.95;;;5.30;62.70;;;;;;6289057;28;20100;-69
2023/12/07 07:07:38;;;;;;;3.83;2.63;;;5.40;62.70;;;;;;6287523;28;20534;-69
2023/12/07 07:10:38;;;;;;;4.32;2.80;;;5.40;62.80;;;;;;6287206;28;20021;-69
2023/12/07 07:13:40;;;;;;;2.55;1.90;;;5.40;62.60;;;;;;6289104;28;20063;-71
2023/12/07 07:16:41;;;;;;;2.00;0.90;;;5.40;63.40;;;;;;6287246;28;20347;-72
2023/12/07 07:19:43;;;;;;;9.85;3.00;;;5.40;62.50;;;;;;6286470;28;20051;-70
2023/12/07 07:22:45;;;;;;;5.43;2.55;;;5.40;62.40;;;;;;6270293;28;20111;-70
2023/12/07 07:25:46;;;;;;;3.72;1.90;;;5.40;62.40;;;;;;6286748;28;20032;-69
2023/12/07 07:28:46;;;;;;;4.35;2.88;;;5.40;62.40;;;;;;6285917;28;20059;-70
2023/12/07 07:31:47;;;;;;;2.97;1.85;;;5.40;62.40;;;;;;6266041;28;20505;-68
2023/12/07 07:34:48;;;;;;;5.15;2.63;;;5.40;62.40;;;;;;6287038;28;20492;-70
2023/12/07 07:37:50;;;;;;;5.20;2.35;;;5.40;62.30;;;;;;6269295;28;20045;-70
2023/12/07 07:40:50;;;;;;;7.97;3.67;;;5.40;62.20;;;;;;6284466;28;20048;-67
2023/12/07 07:43:51;;;;;;;2.58;2.03;;;5.40;62.10;;;;;;6286173;28;20028;-70
2023/12/07 07:46:52;;;;;;;4.68;2.75;;;5.50;62.20;;;;;;6286636;28;20549;-69
2023/12/07 07:49:53;;;;;;;4.18;2.22;;;5.50;62.10;;;;;;6285659;28;20393;-70
2023/12/07 07:52:56;;;;;;;3.45;2.40;;;5.50;62.10;;;;;;6287536;28;20500;-68
2023/12/07 07:55:57;;;;;;;3.03;2.00;;;5.70;62.10;;;;;;6268815;28;20543;-70
2023/12/07 07:59:00;;;;;;;4.22;2.78;;;5.70;61.80;;;;;;6269515;28;20127;-71
2023/12/07 08:02:02;;;;;;;5.80;2.63;;;5.70;61.50;;;;;;6284680;28;20492;-68
2023/12/07 08:05:04;;;;;;;5.88;2.65;;;5.70;61.40;;;;;;6285839;28;20573;-67
2023/12/07 08:08:05;;;;;;;3.40;2.60;;;5.80;61.20;;;;;;6285339;28;20040;-69
2023/12/07 08:11:06;;;;;;;3.60;2.13;;;5.80;61.20;;;;;;6287352;28;20407;-68
2023/12/07 08:14:07;;;;;;;31.05;3.25;;;5.80;61.30;;;;;;6268351;28;20063;-68
2023/12/07 08:17:07;;;;;;;3.28;2.08;;;5.80;61.30;;;;;;6287116;28;20036;-69
2023/12/07 08:20:12;;;;;;;4.05;2.45;;;5.80;61.30;;;;;;6285469;28;20098;-68
2023/12/07 08:23:13;;;;;;;7.28;2.15;;;5.80;61.00;;;;;;6269478;28;20089;-68
2023/12/07 08:26:15;;;;;;;8.63;3.35;;;5.80;60.70;;;;;;6285485;28;20033;-70
2023/12/07 08:29:16;;;;;;;2.42;2.17;;;5.80;60.70;;;;;;6286204;28;20165;-69
2023/12/07 08:32:19;;;;;;;4.63;2.20;;;5.70;60.60;;;;;;6286199;28;20512;-69
2023/12/07 08:35:21;;;;;;;3.65;2.03;;;5.70;61.40;;;;;;6284642;28;20058;-69
2023/12/07 08:38:24;;;;;;;3.92;2.88;;;5.70;60.70;;;;;;6268222;28;20044;-69
2023/12/07 08:41:25;;;;;;;7.65;3.10;;;5.80;60.70;;;;;;6286876;28;20035;-71
2023/12/07 08:44:26;;;;;;;7.75;2.80;;;5.90;60.60;;;;;;6285619;28;20028;-71
2023/12/07 08:47:29;;;;;;;4.88;2.05;;;6.00;60.20;;;;;;6282069;28;20056;-71
2023/12/07 08:50:30;;;;;;;5.60;2.53;;;6.10;59.90;;;;;;6284658;28;20058;-71
2023/12/07 08:53:31;;;;;;;7.03;2.70;;;6.20;59.60;;;;;;6286167;28;20094;-71
2023/12/07 08:56:33;;;;;;;5.00;2.40;;;6.20;59.30;;;;;;6286071;28;20036;-71
2023/12/07 08:59:33;;;;;;;6.38;3.80;;;6.20;59.10;;;;;;6250432;28;20182;-70
2023/12/07 09:02:36;;;;;;;13.77;4.57;;;6.30;59.10;;;;;;6284099;28;20033;-70
2023/12/07 09:05:38;;;;;;;16.52;5.03;;;6.30;59.10;;;;;;6285289;28;20048;-70
2023/12/07 09:08:39;;;;;;;5.07;3.35;;;6.40;59.10;;;;;;6285033;28;20044;-69
2023/12/07 09:11:39;;;;;;;6.40;2.75;;;6.60;59.00;;;;;;6285685;28;20081;-71
2023/12/07 09:14:42;;;;;;;6.43;2.38;;;6.70;58.70;;;;;;6283465;28;20440;-70
2023/12/07 09:17:43;;;;;;;4.70;2.05;;;6.80;58.40;;;;;;6266560;28;20037;-69
2023/12/07 09:20:45;;;;;;;4.03;2.17;;;7.00;58.30;;;;;;6284591;28;20039;-70
2023/12/07 09:23:46;;;;;;;4.28;2.05;;;7.10;57.50;;;;;;6284675;28;20497;-69
2023/12/07 09:26:48;;;;;;;6.07;2.00;;;7.20;56.90;;;;;;6284616;28;20031;-72
2023/12/07 09:29:51;;;;;;;6.95;2.42;;;7.30;56.60;;;;;;6284115;28;20036;-71
2023/12/07 09:32:52;;;;;;;4.63;2.58;;;7.40;56.10;;;;;;6282124;28;20407;-72
2023/12/07 09:35:56;;;;;;;5.45;3.15;;;7.40;55.60;;;;;;6282302;28;20028;-70
2023/12/07 09:38:57;;;;;;;5.82;2.63;;;7.50;55.70;;;;;;6265554;28;20170;-70
2023/12/07 09:41:57;;;;;;;6.13;3.20;;;7.60;55.70;;;;;;6281637;28;20385;-71
2023/12/07 09:44:59;;;;;;;4.68;2.10;;;7.70;56.00;;;;;;6283941;28;20029;-69
2023/12/07 09:48:00;;;;;;;6.72;1.95;;;7.80;54.50;;;;;;6284858;28;20025;-72
2023/12/07 09:51:03;;;;;;;3.22;1.83;;;7.80;54.20;;;;;;6284706;28;20187;-68
2023/12/07 09:54:05;;;;;;;8.52;2.60;;;7.80;54.10;;;;;;6283263;28;20400;-71
2023/12/07 09:57:11;;;;;;;5.45;2.70;;;7.80;53.90;;;;;;6283967;28;20147;-70
2023/12/07 10:00:14;;;;;;;9.13;3.58;;;7.90;53.60;;;;;;6284397;28;20090;-70
2023/12/07 10:03:24;;;;;;;7.38;3.40;;;8.00;53.70;;;;;;6282206;28;20784;-69
2023/12/07 10:06:25;;;;;;;4.28;2.50;;;8.20;53.80;;;;;;6285138;28;20016;-71
2023/12/07 10:09:26;;;;;;;5.50;3.17;;;8.40;53.60;;;;;;6258338;28;20135;-69
2023/12/07 10:12:27;;;;;;;4.03;2.20;;;8.50;53.00;;;;;;6282900;28;20853;-69
2023/12/07 10:15:30;;;;;;;4.20;2.38;;;8.70;52.40;;;;;;6283911;28;20048;-71
2023/12/07 10:18:30;;;;;;;10.50;3.05;;;8.90;52.70;;;;;;6288981;28;20039;-71
2023/12/07 10:21:36;;;;;;;2.90;2.03;;;9.10;52.00;;;;;;6287871;28;20036;-71
2023/12/07 10:24:37;;;;;;;2.58;1.75;;;9.30;51.50;;;;;;6287454;28;20063;-71
2023/12/07 10:27:43;;;;;;;6.43;3.20;;;9.60;50.80;;;;;;6270756;28;20031;-71
2023/12/07 10:30:45;;;;;;;5.38;2.60;;;9.70;49.50;;;;;;6287048;28;20036;-71
2023/12/07 10:33:49;;;;;;;4.25;1.80;;;9.80;49.50;;;;;;6287197;28;20115;-71
2023/12/07 10:36:52;;;;;;;5.90;2.78;;;10.10;49.20;;;;;;6270079;28;20103;-69
2023/12/07 10:39:53;;;;;;;3.00;1.65;;;10.30;49.00;;;;;;6286340;28;20117;-71
2023/12/07 10:42:57;;;;;;;5.10;1.90;;;10.70;48.70;;;;;;6268997;28;20032;-71
2023/12/07 10:46:00;;;;;;;4.97;2.35;;;11.20;47.60;;;;;;6286281;28;20029;-71
2023/12/07 10:49:05;;;;;;;3.30;2.00;;;11.40;46.00;;;;;;6286955;28;20033;-71
2023/12/07 10:52:14;;;;;;;2.33;1.73;;;11.50;46.00;;;;;;6284013;28;20041;-70
2023/12/07 10:55:22;;;;;;;2.58;1.80;;;11.60;45.60;;;;;;6264404;28;20060;-71
2023/12/07 10:58:27;;;;;;;4.45;2.40;;;11.40;44.70;;;;;;6270024;28;20460;-71
2023/12/07 11:01:30;;;;;;;8.85;3.78;;;11.20;45.10;;;;;;6287291;28;20043;-70
2023/12/07 11:04:31;;;;;;;3.58;2.13;;;11.10;45.90;;;;;;6286925;28;20107;-71
2023/12/07 11:07:48;;;;;;;8.23;2.70;;;11.20;46.10;;;;;;6285403;28;20551;-71
2023/12/07 11:11:11;;;;;;;3.58;1.80;;;11.40;45.40;;;;;;6268556;28;20024;-70
2023/12/07 11:14:14;;;;;;;11.23;3.25;;;11.50;44.80;;;;;;6284954;28;20047;-70
2023/12/07 11:17:16;;;;;;;9.00;2.95;;;11.70;43.90;;;;;;6269398;28;20032;-70
2023/12/07 11:20:31;;;;;;;7.80;2.70;;;11.90;43.40;;;;;;6287317;28;20036;-69
2023/12/07 11:23:32;;;;;;;10.13;3.45;;;12.20;43.40;;;;;;6285294;28;20037;-70
2023/12/07 11:26:35;;;;;;;6.95;3.20;;;12.60;43.20;;;;;;6287892;28;20125;-71
2023/12/07 11:29:37;;;;;;;9.02;3.83;;;12.90;42.30;;;;;;6286208;28;20032;-70
2023/12/07 11:32:38;;;;;;;9.73;3.88;;;12.80;42.40;;;;;;6285894;28;20441;-69
2023/12/07 11:36:02;;;;;;;11.95;4.78;;;12.70;42.10;;;;;;6285803;28;20044;-70
2023/12/07 11:39:11;;;;;;;6.15;3.38;;;12.50;43.00;;;;;;6271738;28;20032;-71
2023/12/07 11:42:17;;;;;;;5.55;3.17;;;12.30;43.10;;;;;;6287932;28;20035;-69
2023/12/07 11:45:38;;;;;;;15.25;2.92;;;12.00;43.70;;;;;;6268845;28;20036;-70
2023/12/07 11:48:45;;;;;;;6.68;2.40;;;11.90;44.40;;;;;;6281964;28;20026;-72
2023/12/07 11:51:48;;;;;;;9.77;3.85;;;11.80;44.50;;;;;;6284407;28;20036;-70
2023/12/07 11:54:50;;;;;;;6.15;2.67;;;11.70;44.40;;;;;;6285344;28;20123;-70
2023/12/07 11:57:51;;;;;;;5.85;2.30;;;11.60;44.60;;;;;;6284210;28;20032;-70
2023/12/07 12:00:53;;;;;;;5.63;2.75;;;11.50;44.50;;;;;;6283964;28;20135;-70
2023/12/07 12:03:55;;;;;;;13.35;2.65;;;11.50;44.10;;;;;;6284413;28;20036;-73
2023/12/07 12:06:57;;;;;;;8.05;3.30;;;11.30;43.60;;;;;;6267979;28;20036;-67
2023/12/07 12:09:59;;;;;;;9.82;3.22;;;11.10;43.90;;;;;;6284316;28;20535;-71
2023/12/07 12:13:04;;;;;;;10.23;2.30;;;11.10;44.60;;;;;;6284867;28;20036;-71
2023/12/07 12:16:06;;;;;;;5.70;1.55;;;11.00;44.70;;;;;;6286252;28;20028;-70
2023/12/07 12:19:07;;;;;;;3.78;1.85;;;11.00;44.60;;;;;;6284771;28;20142;-72
2023/12/07 12:22:08;;;;;;;3.55;1.77;;;11.10;44.80;;;;;;6269146;28;20070;-72
2023/12/07 12:25:12;;;;;;;5.75;1.77;;;11.10;44.70;;;;;;6284966;28;20089;-71
2023/12/07 12:28:16;;;;;;;6.75;2.25;;;11.10;44.40;;;;;;6284500;28;20068;-71
2023/12/07 12:31:18;;;;;;;1.40;1.02;;;11.10;44.20;;;;;;6286151;28;20044;-70
2023/12/07 12:34:21;;;;;;;12.68;1.45;;;11.10;44.40;;;;;;6267846;28;20361;-70
2023/12/07 12:37:22;;;;;;;8.20;1.70;;;11.00;43.70;;;;;;6284942;28;20063;-71
2023/12/07 12:40:26;;;;;;;2.58;1.10;;;11.00;44.10;;;;;;6283803;28;20119;-70
2023/12/07 12:43:28;;;;;;;2.03;1.08;;;11.00;44.20;;;;;;6285720;28;20036;-69
2023/12/07 12:46:29;;;;;;;2.92;0.90;;;11.10;44.10;;;;;;6280304;28;20024;-72
2023/12/07 12:49:39;;;;;;;2.15;1.15;;;11.10;44.10;;;;;;6266668;28;20501;-73
2023/12/07 12:52:41;;;;;;;0.85;0.82;;;11.10;44.10;;;;;;6284905;28;20037;-72
2023/12/07 12:55:42;;;;;;;7.82;1.25;;;11.20;44.20;;;;;;6268231;28;20118;-72
2023/12/07 12:58:45;;;;;;;4.65;0.93;;;11.20;44.20;;;;;;6285060;28;20031;-72
2023/12/07 13:01:46;;;;;;;6.20;1.08;;;11.20;43.90;;;;;;6243145;28;20775;-72
2023/12/07 13:04:47;;;;;;;1.80;1.15;;;11.20;43.80;;;;;;6284309;28;20197;-72
2023/12/07 13:07:48;;;;;;;1.70;0.88;;;11.20;43.80;;;;;;6285075;28;20761;-72
2023/12/07 13:10:49;;;;;;;7.45;1.77;;;11.10;43.90;;;;;;6285902;28;20033;-71
2023/12/07 13:13:52;;;;;;;2.97;1.20;;;11.10;44.00;;;;;;6285047;28;20087;-72
2023/12/07 13:16:53;;;;;;;24.92;3.63;;;11.10;44.20;;;;;;6285325;28;20044;-71
2023/12/07 13:19:54;;;;;;;6.75;2.17;;;11.20;44.20;;;;;;6283817;28;20042;-72
2023/12/07 13:22:55;;;;;;;3.42;1.70;;;11.20;44.30;;;;;;6285740;28;20129;-73
2023/12/07 13:25:56;;;;;;;2.08;1.08;;;11.20;44.30;;;;;;6283896;28;20122;-70
2023/12/07 13:28:57;;;;;;;2.75;1.40;;;11.20;44.40;;;;;;6282593;28;20383;-71
2023/12/07 13:32:00;;;;;;;4.93;1.85;;;11.20;44.60;;;;;;6266742;28;20050;-73
2023/12/07 13:35:02;;;;;;;9.10;2.92;;;11.20;44.60;;;;;;6284598;28;20139;-71
2023/12/07 13:38:04;;;;;;;3.25;1.70;;;11.20;44.40;;;;;;6283085;28;20046;-71
2023/12/07 13:41:06;;;;;;;1.73;1.10;;;11.10;44.50;;;;;;6268990;28;20044;-72
2023/12/07 13:44:07;;;;;;;5.25;1.50;;;11.10;44.50;;;;;;6283701;28;20421;-71
2023/12/07 13:47:08;;;;;;;1.75;1.30;;;11.00;44.60;;;;;;6266277;28;20057;-71
2023/12/07 13:50:11;;;;;;;3.13;1.63;;;11.00;44.80;;;;;;6285396;28;20032;-72
2023/12/07 13:53:12;;;;;;;10.65;2.70;;;10.90;45.00;;;;;;6286779;28;20112;-71
2023/12/07 13:56:14;;;;;;;3.08;2.10;;;10.90;45.10;;;;;;6284239;28;20064;-71
2023/12/07 13:59:15;;;;;;;7.07;2.67;;;10.90;45.30;;;;;;6288085;28;20081;-70
2023/12/07 14:02:16;;;;;;;8.32;2.55;;;10.90;45.40;;;;;;6288936;28;20530;-72
2023/12/07 14:05:18;;;;;;;9.52;3.10;;;11.00;45.50;;;;;;6290434;28;20123;-70
2023/12/07 14:08:19;;;;;;;3.63;1.70;;;10.90;45.50;;;;;;6289151;28;20038;-72
2023/12/07 14:11:20;;;;;;;4.88;2.05;;;10.90;45.50;;;;;;6287119;28;20444;-70
2023/12/07 14:14:21;;;;;;;2.80;1.40;;;10.90;45.50;;;;;;6289433;28;20497;-71
2023/12/07 14:17:23;;;;;;;2.30;1.35;;;10.90;45.70;;;;;;6294455;28;20029;-71
2023/12/07 14:20:27;;;;;;;3.97;1.70;;;10.90;45.70;;;;;;6300060;28;20133;-70
2023/12/07 14:23:28;;;;;;;3.47;1.65;;;10.80;45.60;;;;;;6306966;28;20440;-71
2023/12/07 14:26:30;;;;;;;9.35;2.08;;;10.80;45.60;;;;;;6290274;28;20139;-71
2023/12/07 14:29:33;;;;;;;3.90;1.83;;;10.70;45.60;;;;;;6289293;28;20039;-70
2023/12/07 14:32:35;;;;;;;2.45;1.70;;;10.70;45.50;;;;;;6272418;28;20121;-71
2023/12/07 14:35:36;;;;;;;1.95;1.40;;;10.70;45.40;;;;;;6287926;28;20649;-72
2023/12/07 14:38:37;;;;;;;3.53;1.73;;;10.60;45.50;;;;;;6285438;28;20033;-70
2023/12/07 14:41:41;;;;;;;5.97;1.67;;;10.50;46.30;;;;;;6287810;28;20146;-71
2023/12/07 14:44:41;;;;;;;3.28;1.55;;;10.50;46.00;;;;;;6289772;28;20024;-69
2023/12/07 14:47:42;;;;;;;5.40;2.05;;;10.40;46.00;;;;;;6287793;28;20069;-70
2023/12/07 14:50:44;;;;;;;7.13;2.85;;;10.40;46.20;;;;;;6287696;28;20085;-70
2023/12/07 14:53:44;;;;;;;8.27;2.65;;;10.40;46.30;;;;;;6287831;28;20039;-69
2023/12/07 14:56:47;;;;;;;5.90;2.25;;;10.40;46.40;;;;;;6290278;28;20209;-70
2023/12/07 14:59:50;;;;;;;5.00;2.80;;;10.40;46.60;;;;;;6286801;28;20376;-71
2023/12/07 15:02:52;;;;;;;6.90;2.10;;;10.40;46.70;;;;;;6285991;28;20463;-70
2023/12/07 15:05:53;;;;;;;5.60;3.10;;;10.30;46.70;;;;;;6264179;28;20119;-70
2023/12/07 15:08:56;;;;;;;8.45;2.00;;;10.40;46.80;;;;;;6296020;28;20460;-70
2023/12/07 15:11:56;;;;;;;9.32;2.63;;;10.30;46.90;;;;;;6296231;28;20150;-71
2023/12/07 15:14:59;;;;;;;13.57;4.60;;;10.30;46.90;;;;;;6303154;28;20397;-69
2023/12/07 15:18:00;;;;;;;14.27;3.97;;;10.30;47.10;;;;;;6296993;28;20073;-70
2023/12/07 15:21:04;;;;;;;6.47;2.95;;;10.30;47.10;;;;;;6299998;28;20176;-71
2023/12/07 15:24:05;;;;;;;4.00;2.17;;;10.20;47.20;;;;;;6295552;28;20028;-70
2023/12/07 15:27:07;;;;;;;3.95;2.15;;;10.10;47.20;;;;;;6295700;28;20028;-70
2023/12/07 15:30:09;;;;;;;4.47;2.25;;;10.10;47.40;;;;;;6293195;28;20029;-70
2023/12/07 15:33:10;;;;;;;3.80;2.00;;;10.10;47.30;;;;;;6293211;28;20462;-70
2023/12/07 15:36:12;;;;;;;8.32;2.67;;;10.10;47.40;;;;;;6301701;28;20036;-71
2023/12/07 15:39:13;;;;;;;11.63;2.72;;;10.10;47.50;;;;;;6279053;28;20069;-71
2023/12/07 15:42:14;;;;;;;5.53;1.90;;;10.10;47.40;;;;;;6280638;28;20061;-70
2023/12/07 15:45:15;;;;;;;3.22;1.63;;;10.10;47.30;;;;;;6299042;28;20037;-70
2023/12/07 15:48:17;;;;;;;6.47;2.15;;;10.00;47.20;;;;;;6280480;28;20032;-70
2023/12/07 15:51:18;;;;;;;13.95;1.90;;;10.00;47.20;;;;;;6298128;28;20032;-69
2023/12/07 15:54:19;;;;;;;3.70;2.08;;;10.00;47.30;;;;;;6292397;28;20039;-70